sensor_id;sensor_type;location;lat;lon;timestamp;P1;durP1;ratioP1;P2;durP2;ratioP2
46931;SDS011;32670;51.464;11.964;2023-09-19T00:01:05;1.80;;;1.10;;
46931;SDS011;32670;51.464;11.964;2023-09-19T00:03:37;2.80;;;0.93;;
46931;SDS011;32670;51.464;11.964;2023-09-19T00:06:03;2.70;;;1.00;;
46931;SDS011;32670;51.464;11.964;2023-09-19T00:08:32;2.13;;;0.90;;
46931;SDS011;32670;51.464;11.964;2023-09-19T00:10:58;1.03;;;0.93;;
46931;SDS011;32670;51.464;11.964;2023-09-19T00:13:30;2.97;;;1.13;;
46931;SDS011;32670;51.464;11.964;2023-09-19T00:16:00;1.67;;;1.10;;
46931;SDS011;32670;51.464;11.964;2023-09-19T00:18:32;1.67;;;1.10;;
46931;SDS011;32670;51.464;11.964;2023-09-19T00:20:59;1.83;;;1.00;;
46931;SDS011;32670;51.464;11.964;2023-09-19T00:23:25;3.23;;;1.10;;
46931;SDS011;32670;51.464;11.964;2023-09-19T00:25:51;1.47;;;0.90;;
46931;SDS011;32670;51.464;11.964;2023-09-19T00:28:17;1.77;;;1.23;;
46931;SDS011;32670;51.464;11.964;2023-09-19T00:30:45;2.00;;;1.03;;
46931;SDS011;32670;51.464;11.964;2023-09-19T00:33:14;1.93;;;1.10;;
46931;SDS011;32670;51.464;11.964;2023-09-19T00:35:51;2.40;;;1.13;;
46931;SDS011;32670;51.464;11.964;2023-09-19T00:38:17;3.13;;;1.10;;
46931;SDS011;32670;51.464;11.964;2023-09-19T00:40:49;3.87;;;1.30;;
46931;SDS011;32670;51.464;11.964;2023-09-19T00:43:19;3.10;;;1.10;;
46931;SDS011;32670;51.464;11.964;2023-09-19T00:45:46;1.30;;;1.20;;
46931;SDS011;32670;51.464;11.964;2023-09-19T00:48:13;1.63;;;1.00;;
46931;SDS011;32670;51.464;11.964;2023-09-19T00:50:40;3.27;;;1.10;;
46931;SDS011;32670;51.464;11.964;2023-09-19T00:53:07;1.20;;;0.90;;
46931;SDS011;32670;51.464;11.964;2023-09-19T00:55:35;2.60;;;1.10;;
46931;SDS011;32670;51.464;11.964;2023-09-19T00:58:02;1.77;;;1.00;;
46931;SDS011;32670;51.464;11.964;2023-09-19T01:00:28;3.20;;;0.90;;
46931;SDS011;32670;51.464;11.964;2023-09-19T01:02:54;3.37;;;1.00;;
46931;SDS011;32670;51.464;11.964;2023-09-19T01:05:19;1.87;;;1.07;;
46931;SDS011;32670;51.464;11.964;2023-09-19T01:07:45;2.83;;;1.00;;
46931;SDS011;32670;51.464;11.964;2023-09-19T01:10:14;1.40;;;1.00;;
46931;SDS011;32670;51.464;11.964;2023-09-19T01:12:45;3.07;;;1.10;;
46931;SDS011;32670;51.464;11.964;2023-09-19T01:15:20;1.53;;;1.00;;
46931;SDS011;32670;51.464;11.964;2023-09-19T01:18:03;1.27;;;1.00;;
46931;SDS011;32670;51.464;11.964;2023-09-19T01:21:00;1.50;;;1.20;;
46931;SDS011;32670;51.464;11.964;2023-09-19T01:27:06;1.80;;;1.10;;
46931;SDS011;32670;51.464;11.964;2023-09-19T01:29:42;1.60;;;1.07;;
46931;SDS011;32670;51.464;11.964;2023-09-19T01:32:10;2.83;;;0.93;;
46931;SDS011;32670;51.464;11.964;2023-09-19T01:34:46;1.33;;;1.00;;
46931;SDS011;32670;51.464;11.964;2023-09-19T01:37:16;1.70;;;0.90;;
46931;SDS011;32670;51.464;11.964;2023-09-19T01:39:48;3.20;;;1.17;;
46931;SDS011;32670;51.464;11.964;2023-09-19T01:42:20;1.13;;;1.03;;
46931;SDS011;32670;51.464;11.964;2023-09-19T01:45:02;1.07;;;0.90;;
46931;SDS011;32670;51.464;11.964;2023-09-19T01:47:35;1.23;;;0.90;;
46931;SDS011;32670;51.464;11.964;2023-09-19T01:50:11;2.20;;;1.10;;
46931;SDS011;32670;51.464;11.964;2023-09-19T01:52:51;2.30;;;1.03;;
46931;SDS011;32670;51.464;11.964;2023-09-19T01:55:22;1.40;;;1.00;;
46931;SDS011;32670;51.464;11.964;2023-09-19T01:57:54;1.33;;;1.00;;
46931;SDS011;32670;51.464;11.964;2023-09-19T02:00:24;1.37;;;0.93;;
46931;SDS011;32670;51.464;11.964;2023-09-19T02:02:52;0.80;;;0.80;;
46931;SDS011;32670;51.464;11.964;2023-09-19T02:05:23;2.20;;;1.00;;
46931;SDS011;32670;51.464;11.964;2023-09-19T02:07:50;1.87;;;1.00;;
46931;SDS011;32670;51.464;11.964;2023-09-19T02:10:16;2.77;;;1.13;;
46931;SDS011;32670;51.464;11.964;2023-09-19T02:12:42;3.07;;;1.20;;
46931;SDS011;32670;51.464;11.964;2023-09-19T02:15:08;6.47;;;1.17;;
46931;SDS011;32670;51.464;11.964;2023-09-19T02:17:34;1.40;;;1.10;;
46931;SDS011;32670;51.464;11.964;2023-09-19T02:19:59;3.90;;;1.00;;
46931;SDS011;32670;51.464;11.964;2023-09-19T02:22:26;3.03;;;1.10;;
46931;SDS011;32670;51.464;11.964;2023-09-19T02:24:51;1.90;;;0.97;;
46931;SDS011;32670;51.464;11.964;2023-09-19T02:27:18;1.63;;;0.80;;
46931;SDS011;32670;51.464;11.964;2023-09-19T02:29:44;1.30;;;0.90;;
46931;SDS011;32670;51.464;11.964;2023-09-19T02:32:10;2.23;;;0.93;;
46931;SDS011;32670;51.464;11.964;2023-09-19T02:34:36;1.53;;;1.10;;
46931;SDS011;32670;51.464;11.964;2023-09-19T02:37:05;1.67;;;1.00;;
46931;SDS011;32670;51.464;11.964;2023-09-19T02:39:31;1.80;;;1.00;;
46931;SDS011;32670;51.464;11.964;2023-09-19T02:41:57;3.90;;;0.90;;
46931;SDS011;32670;51.464;11.964;2023-09-19T02:44:22;1.03;;;0.93;;
46931;SDS011;32670;51.464;11.964;2023-09-19T02:46:48;2.20;;;0.90;;
46931;SDS011;32670;51.464;11.964;2023-09-19T02:49:14;1.20;;;1.10;;
46931;SDS011;32670;51.464;11.964;2023-09-19T02:51:40;2.23;;;1.20;;
46931;SDS011;32670;51.464;11.964;2023-09-19T02:54:06;1.90;;;1.00;;
46931;SDS011;32670;51.464;11.964;2023-09-19T02:56:31;1.50;;;1.00;;
46931;SDS011;32670;51.464;11.964;2023-09-19T02:58:57;1.30;;;1.07;;
46931;SDS011;32670;51.464;11.964;2023-09-19T03:01:23;1.17;;;0.80;;
46931;SDS011;32670;51.464;11.964;2023-09-19T03:03:48;1.87;;;1.00;;
46931;SDS011;32670;51.464;11.964;2023-09-19T03:06:14;2.70;;;1.10;;
46931;SDS011;32670;51.464;11.964;2023-09-19T03:08:40;2.23;;;0.90;;
46931;SDS011;32670;51.464;11.964;2023-09-19T03:11:10;1.63;;;1.20;;
46931;SDS011;32670;51.464;11.964;2023-09-19T03:13:36;2.03;;;1.00;;
46931;SDS011;32670;51.464;11.964;2023-09-19T03:16:03;1.53;;;1.10;;
46931;SDS011;32670;51.464;11.964;2023-09-19T03:18:30;2.13;;;1.00;;
46931;SDS011;32670;51.464;11.964;2023-09-19T03:20:57;0.90;;;0.90;;
46931;SDS011;32670;51.464;11.964;2023-09-19T03:23:25;1.90;;;0.97;;
46931;SDS011;32670;51.464;11.964;2023-09-19T03:25:51;1.83;;;1.00;;
46931;SDS011;32670;51.464;11.964;2023-09-19T03:28:17;1.20;;;1.10;;
46931;SDS011;32670;51.464;11.964;2023-09-19T03:30:43;2.67;;;1.00;;
46931;SDS011;32670;51.464;11.964;2023-09-19T03:33:09;1.53;;;0.97;;
46931;SDS011;32670;51.464;11.964;2023-09-19T03:35:36;2.00;;;1.20;;
46931;SDS011;32670;51.464;11.964;2023-09-19T03:38:03;2.83;;;1.10;;
46931;SDS011;32670;51.464;11.964;2023-09-19T03:40:29;3.17;;;1.03;;
46931;SDS011;32670;51.464;11.964;2023-09-19T03:42:55;2.20;;;0.80;;
46931;SDS011;32670;51.464;11.964;2023-09-19T03:45:20;1.17;;;0.83;;
46931;SDS011;32670;51.464;11.964;2023-09-19T03:47:46;1.07;;;0.80;;
46931;SDS011;32670;51.464;11.964;2023-09-19T03:50:14;2.97;;;1.00;;
46931;SDS011;32670;51.464;11.964;2023-09-19T03:52:42;1.80;;;0.90;;
46931;SDS011;32670;51.464;11.964;2023-09-19T03:55:10;1.27;;;0.90;;
46931;SDS011;32670;51.464;11.964;2023-09-19T03:57:37;2.10;;;1.00;;
46931;SDS011;32670;51.464;11.964;2023-09-19T04:00:02;1.20;;;1.00;;
46931;SDS011;32670;51.464;11.964;2023-09-19T04:02:36;1.33;;;1.00;;
46931;SDS011;32670;51.464;11.964;2023-09-19T04:05:02;1.10;;;1.00;;
46931;SDS011;32670;51.464;11.964;2023-09-19T04:07:28;1.20;;;0.90;;
46931;SDS011;32670;51.464;11.964;2023-09-19T04:09:54;1.20;;;0.93;;
46931;SDS011;32670;51.464;11.964;2023-09-19T04:12:20;0.90;;;0.80;;
46931;SDS011;32670;51.464;11.964;2023-09-19T04:14:46;1.17;;;0.90;;
46931;SDS011;32670;51.464;11.964;2023-09-19T04:17:11;2.90;;;1.00;;
46931;SDS011;32670;51.464;11.964;2023-09-19T04:19:37;1.20;;;1.00;;
46931;SDS011;32670;51.464;11.964;2023-09-19T04:22:02;2.87;;;0.93;;
46931;SDS011;32670;51.464;11.964;2023-09-19T04:24:29;1.47;;;0.90;;
46931;SDS011;32670;51.464;11.964;2023-09-19T04:26:55;1.17;;;1.07;;
46931;SDS011;32670;51.464;11.964;2023-09-19T04:29:22;1.30;;;1.00;;
46931;SDS011;32670;51.464;11.964;2023-09-19T04:31:47;1.10;;;1.00;;
46931;SDS011;32670;51.464;11.964;2023-09-19T04:34:13;2.40;;;1.13;;
46931;SDS011;32670;51.464;11.964;2023-09-19T04:36:41;1.70;;;1.03;;
46931;SDS011;32670;51.464;11.964;2023-09-19T04:39:08;1.60;;;0.97;;
46931;SDS011;32670;51.464;11.964;2023-09-19T04:41:35;6.13;;;1.20;;
46931;SDS011;32670;51.464;11.964;2023-09-19T04:44:04;1.23;;;0.80;;
46931;SDS011;32670;51.464;11.964;2023-09-19T04:46:30;3.07;;;1.10;;
46931;SDS011;32670;51.464;11.964;2023-09-19T04:48:55;1.37;;;1.10;;
46931;SDS011;32670;51.464;11.964;2023-09-19T04:51:21;1.00;;;0.80;;
46931;SDS011;32670;51.464;11.964;2023-09-19T04:53:47;1.77;;;1.20;;
46931;SDS011;32670;51.464;11.964;2023-09-19T04:56:13;0.73;;;0.73;;
46931;SDS011;32670;51.464;11.964;2023-09-19T04:58:38;2.13;;;1.20;;
46931;SDS011;32670;51.464;11.964;2023-09-19T05:01:04;1.13;;;1.03;;
46931;SDS011;32670;51.464;11.964;2023-09-19T05:03:30;3.73;;;1.20;;
46931;SDS011;32670;51.464;11.964;2023-09-19T05:05:55;2.47;;;1.50;;
46931;SDS011;32670;51.464;11.964;2023-09-19T05:08:21;6.40;;;1.43;;
46931;SDS011;32670;51.464;11.964;2023-09-19T05:10:47;3.37;;;1.10;;
46931;SDS011;32670;51.464;11.964;2023-09-19T05:13:13;1.53;;;0.80;;
46931;SDS011;32670;51.464;11.964;2023-09-19T05:15:39;2.77;;;1.00;;
46931;SDS011;32670;51.464;11.964;2023-09-19T05:18:05;2.10;;;0.90;;
46931;SDS011;32670;51.464;11.964;2023-09-19T05:20:31;3.83;;;1.10;;
46931;SDS011;32670;51.464;11.964;2023-09-19T05:23:01;1.80;;;1.13;;
46931;SDS011;32670;51.464;11.964;2023-09-19T05:25:29;0.97;;;0.90;;
46931;SDS011;32670;51.464;11.964;2023-09-19T05:27:56;2.03;;;1.07;;
46931;SDS011;32670;51.464;11.964;2023-09-19T05:30:23;3.70;;;1.57;;
46931;SDS011;32670;51.464;11.964;2023-09-19T05:32:52;1.90;;;1.27;;
46931;SDS011;32670;51.464;11.964;2023-09-19T05:35:17;2.13;;;1.00;;
46931;SDS011;32670;51.464;11.964;2023-09-19T05:37:43;2.40;;;1.33;;
46931;SDS011;32670;51.464;11.964;2023-09-19T05:40:09;2.33;;;1.20;;
46931;SDS011;32670;51.464;11.964;2023-09-19T05:42:37;1.80;;;1.30;;
46931;SDS011;32670;51.464;11.964;2023-09-19T05:45:04;1.80;;;1.10;;
46931;SDS011;32670;51.464;11.964;2023-09-19T05:47:31;1.83;;;1.10;;
46931;SDS011;32670;51.464;11.964;2023-09-19T05:49:57;3.10;;;1.10;;
46931;SDS011;32670;51.464;11.964;2023-09-19T05:52:22;1.10;;;1.00;;
46931;SDS011;32670;51.464;11.964;2023-09-19T05:54:48;1.70;;;1.10;;
46931;SDS011;32670;51.464;11.964;2023-09-19T05:57:14;4.13;;;1.50;;
46931;SDS011;32670;51.464;11.964;2023-09-19T05:59:40;3.77;;;1.40;;
46931;SDS011;32670;51.464;11.964;2023-09-19T06:02:07;4.63;;;1.77;;
46931;SDS011;32670;51.464;11.964;2023-09-19T06:04:34;2.53;;;1.40;;
46931;SDS011;32670;51.464;11.964;2023-09-19T06:07:00;3.73;;;1.23;;
46931;SDS011;32670;51.464;11.964;2023-09-19T06:09:26;3.90;;;1.67;;
46931;SDS011;32670;51.464;11.964;2023-09-19T06:11:52;1.90;;;1.23;;
46931;SDS011;32670;51.464;11.964;2023-09-19T06:14:18;3.80;;;1.30;;
46931;SDS011;32670;51.464;11.964;2023-09-19T06:16:44;3.27;;;1.20;;
46931;SDS011;32670;51.464;11.964;2023-09-19T06:19:10;1.70;;;1.20;;
46931;SDS011;32670;51.464;11.964;2023-09-19T06:21:36;1.63;;;1.10;;
46931;SDS011;32670;51.464;11.964;2023-09-19T06:24:01;2.53;;;1.20;;
46931;SDS011;32670;51.464;11.964;2023-09-19T06:26:27;1.87;;;1.13;;
46931;SDS011;32670;51.464;11.964;2023-09-19T06:28:54;1.87;;;1.07;;
46931;SDS011;32670;51.464;11.964;2023-09-19T06:31:20;8.50;;;1.60;;
46931;SDS011;32670;51.464;11.964;2023-09-19T06:33:47;5.70;;;1.60;;
46931;SDS011;32670;51.464;11.964;2023-09-19T06:36:13;5.13;;;1.60;;
46931;SDS011;32670;51.464;11.964;2023-09-19T06:38:40;3.33;;;1.43;;
46931;SDS011;32670;51.464;11.964;2023-09-19T06:41:06;6.60;;;1.70;;
46931;SDS011;32670;51.464;11.964;2023-09-19T06:43:33;2.13;;;1.20;;
46931;SDS011;32670;51.464;11.964;2023-09-19T06:45:59;3.50;;;1.60;;
46931;SDS011;32670;51.464;11.964;2023-09-19T06:48:28;2.77;;;1.40;;
46931;SDS011;32670;51.464;11.964;2023-09-19T06:50:54;1.73;;;1.30;;
46931;SDS011;32670;51.464;11.964;2023-09-19T06:53:20;1.80;;;1.27;;
46931;SDS011;32670;51.464;11.964;2023-09-19T06:55:48;1.83;;;1.33;;
46931;SDS011;32670;51.464;11.964;2023-09-19T06:58:14;2.33;;;1.20;;
46931;SDS011;32670;51.464;11.964;2023-09-19T07:00:41;5.23;;;1.57;;
46931;SDS011;32670;51.464;11.964;2023-09-19T07:03:07;3.03;;;1.60;;
46931;SDS011;32670;51.464;11.964;2023-09-19T07:05:36;3.27;;;1.60;;
46931;SDS011;32670;51.464;11.964;2023-09-19T07:08:03;2.47;;;1.63;;
46931;SDS011;32670;51.464;11.964;2023-09-19T07:10:31;1.40;;;1.30;;
46931;SDS011;32670;51.464;11.964;2023-09-19T07:12:59;4.03;;;1.60;;
46931;SDS011;32670;51.464;11.964;2023-09-19T07:15:29;4.27;;;1.60;;
46931;SDS011;32670;51.464;11.964;2023-09-19T07:17:58;1.50;;;1.37;;
46931;SDS011;32670;51.464;11.964;2023-09-19T07:20:25;2.07;;;1.60;;
46931;SDS011;32670;51.464;11.964;2023-09-19T07:22:52;3.00;;;1.83;;
46931;SDS011;32670;51.464;11.964;2023-09-19T07:25:20;2.60;;;1.80;;
46931;SDS011;32670;51.464;11.964;2023-09-19T07:27:46;3.60;;;2.07;;
46931;SDS011;32670;51.464;11.964;2023-09-19T07:30:11;2.53;;;1.80;;
46931;SDS011;32670;51.464;11.964;2023-09-19T07:32:37;5.03;;;2.43;;
46931;SDS011;32670;51.464;11.964;2023-09-19T07:35:03;4.17;;;2.23;;
46931;SDS011;32670;51.464;11.964;2023-09-19T07:37:33;2.77;;;2.27;;
46931;SDS011;32670;51.464;11.964;2023-09-19T07:39:59;4.50;;;2.20;;
46931;SDS011;32670;51.464;11.964;2023-09-19T07:42:25;9.57;;;2.33;;
46931;SDS011;32670;51.464;11.964;2023-09-19T07:44:51;2.60;;;2.40;;
46931;SDS011;32670;51.464;11.964;2023-09-19T07:47:18;5.77;;;2.40;;
46931;SDS011;32670;51.464;11.964;2023-09-19T07:49:46;3.57;;;2.47;;
46931;SDS011;32670;51.464;11.964;2023-09-19T07:52:12;3.73;;;2.73;;
46931;SDS011;32670;51.464;11.964;2023-09-19T07:54:38;3.33;;;2.90;;
46931;SDS011;32670;51.464;11.964;2023-09-19T07:57:06;3.50;;;2.90;;
46931;SDS011;32670;51.464;11.964;2023-09-19T07:59:32;5.53;;;3.57;;
46931;SDS011;32670;51.464;11.964;2023-09-19T08:01:57;5.27;;;3.30;;
46931;SDS011;32670;51.464;11.964;2023-09-19T08:04:23;6.90;;;3.97;;
46931;SDS011;32670;51.464;11.964;2023-09-19T08:06:50;5.17;;;4.07;;
46931;SDS011;32670;51.464;11.964;2023-09-19T08:09:17;4.07;;;3.63;;
46931;SDS011;32670;51.464;11.964;2023-09-19T08:11:45;6.27;;;4.07;;
46931;SDS011;32670;51.464;11.964;2023-09-19T08:14:12;6.80;;;4.03;;
46931;SDS011;32670;51.464;11.964;2023-09-19T08:16:39;4.57;;;4.07;;
46931;SDS011;32670;51.464;11.964;2023-09-19T08:19:05;5.03;;;4.20;;
46931;SDS011;32670;51.464;11.964;2023-09-19T08:21:31;5.13;;;4.07;;
46931;SDS011;32670;51.464;11.964;2023-09-19T08:23:57;5.13;;;4.10;;
46931;SDS011;32670;51.464;11.964;2023-09-19T08:26:22;5.13;;;4.20;;
46931;SDS011;32670;51.464;11.964;2023-09-19T08:28:49;5.77;;;5.00;;
46931;SDS011;32670;51.464;11.964;2023-09-19T08:31:16;5.77;;;4.93;;
46931;SDS011;32670;51.464;11.964;2023-09-19T08:33:42;7.17;;;4.97;;
46931;SDS011;32670;51.464;11.964;2023-09-19T08:36:09;7.33;;;5.60;;
46931;SDS011;32670;51.464;11.964;2023-09-19T08:38:35;5.80;;;5.20;;
46931;SDS011;32670;51.464;11.964;2023-09-19T08:41:05;7.40;;;5.77;;
46931;SDS011;32670;51.464;11.964;2023-09-19T08:43:35;9.73;;;5.73;;
46931;SDS011;32670;51.464;11.964;2023-09-19T08:46:18;5.60;;;5.00;;
46931;SDS011;32670;51.464;11.964;2023-09-19T08:48:54;9.00;;;5.43;;
46931;SDS011;32670;51.464;11.964;2023-09-19T08:51:33;9.37;;;5.23;;
46931;SDS011;32670;51.464;11.964;2023-09-19T08:54:08;6.10;;;4.60;;
46931;SDS011;32670;51.464;11.964;2023-09-19T08:56:38;5.77;;;4.80;;
46931;SDS011;32670;51.464;11.964;2023-09-19T08:59:05;5.53;;;4.50;;
46931;SDS011;32670;51.464;11.964;2023-09-19T09:01:34;6.03;;;5.03;;
46931;SDS011;32670;51.464;11.964;2023-09-19T09:04:01;5.70;;;4.93;;
46931;SDS011;32670;51.464;11.964;2023-09-19T09:06:27;5.70;;;4.47;;
46931;SDS011;32670;51.464;11.964;2023-09-19T09:08:54;6.30;;;5.53;;
46931;SDS011;32670;51.464;11.964;2023-09-19T09:11:20;6.17;;;5.57;;
46931;SDS011;32670;51.464;11.964;2023-09-19T09:13:49;6.90;;;6.27;;
46931;SDS011;32670;51.464;11.964;2023-09-19T09:16:15;6.27;;;5.60;;
46931;SDS011;32670;51.464;11.964;2023-09-19T09:18:44;7.87;;;6.50;;
46931;SDS011;32670;51.464;11.964;2023-09-19T09:21:10;7.57;;;6.83;;
46931;SDS011;32670;51.464;11.964;2023-09-19T09:23:36;7.30;;;6.60;;
46931;SDS011;32670;51.464;11.964;2023-09-19T09:26:02;7.53;;;6.30;;
46931;SDS011;32670;51.464;11.964;2023-09-19T09:28:28;7.00;;;5.80;;
46931;SDS011;32670;51.464;11.964;2023-09-19T09:30:55;6.30;;;5.70;;
46931;SDS011;32670;51.464;11.964;2023-09-19T09:33:23;6.57;;;5.97;;
46931;SDS011;32670;51.464;11.964;2023-09-19T09:38:18;5.57;;;4.87;;
46931;SDS011;32670;51.464;11.964;2023-09-19T09:40:48;5.40;;;4.23;;
46931;SDS011;32670;51.464;11.964;2023-09-19T09:43:28;4.90;;;4.40;;
46931;SDS011;32670;51.464;11.964;2023-09-19T09:46:07;5.03;;;4.50;;
46931;SDS011;32670;51.464;11.964;2023-09-19T09:51:42;6.63;;;4.90;;
46931;SDS011;32670;51.464;11.964;2023-09-19T09:54:22;5.90;;;4.93;;
46931;SDS011;32670;51.464;11.964;2023-09-19T09:56:55;6.10;;;5.30;;
46931;SDS011;32670;51.464;11.964;2023-09-19T09:59:44;9.10;;;4.97;;
46931;SDS011;32670;51.464;11.964;2023-09-19T10:02:27;4.90;;;4.20;;
46931;SDS011;32670;51.464;11.964;2023-09-19T10:04:57;5.07;;;4.10;;
46931;SDS011;32670;51.464;11.964;2023-09-19T10:07:35;5.43;;;4.53;;
46931;SDS011;32670;51.464;11.964;2023-09-19T10:10:05;4.03;;;3.63;;
46931;SDS011;32670;51.464;11.964;2023-09-19T10:12:42;5.00;;;3.47;;
46931;SDS011;32670;51.464;11.964;2023-09-19T10:15:10;6.07;;;3.87;;
46931;SDS011;32670;51.464;11.964;2023-09-19T10:17:40;4.90;;;4.00;;
46931;SDS011;32670;51.464;11.964;2023-09-19T10:20:09;5.07;;;3.57;;
46931;SDS011;32670;51.464;11.964;2023-09-19T10:22:48;4.53;;;3.30;;
46931;SDS011;32670;51.464;11.964;2023-09-19T10:25:23;3.50;;;2.57;;
46931;SDS011;32670;51.464;11.964;2023-09-19T10:27:55;4.87;;;3.27;;
46931;SDS011;32670;51.464;11.964;2023-09-19T10:30:25;3.53;;;3.23;;
46931;SDS011;32670;51.464;11.964;2023-09-19T10:32:58;3.13;;;2.40;;
46931;SDS011;32670;51.464;11.964;2023-09-19T10:35:29;3.80;;;2.73;;
46931;SDS011;32670;51.464;11.964;2023-09-19T10:38:01;3.20;;;2.20;;
46931;SDS011;32670;51.464;11.964;2023-09-19T10:40:30;3.27;;;2.40;;
46931;SDS011;32670;51.464;11.964;2023-09-19T10:43:01;3.57;;;2.77;;
46931;SDS011;32670;51.464;11.964;2023-09-19T10:45:30;3.37;;;2.80;;
46931;SDS011;32670;51.464;11.964;2023-09-19T10:47:57;3.57;;;2.90;;
46931;SDS011;32670;51.464;11.964;2023-09-19T10:50:22;5.13;;;2.93;;
46931;SDS011;32670;51.464;11.964;2023-09-19T10:52:49;5.17;;;3.00;;
46931;SDS011;32670;51.464;11.964;2023-09-19T10:55:17;3.00;;;2.60;;
46931;SDS011;32670;51.464;11.964;2023-09-19T10:57:45;5.90;;;2.77;;
46931;SDS011;32670;51.464;11.964;2023-09-19T11:00:11;4.37;;;2.80;;
46931;SDS011;32670;51.464;11.964;2023-09-19T11:05:40;2.83;;;2.53;;
46931;SDS011;32670;51.464;11.964;2023-09-19T11:08:07;3.77;;;2.90;;
46931;SDS011;32670;51.464;11.964;2023-09-19T11:10:46;4.83;;;3.20;;
46931;SDS011;32670;51.464;11.964;2023-09-19T11:26:47;4.13;;;3.30;;
46931;SDS011;32670;51.464;11.964;2023-09-19T11:29:26;3.97;;;3.23;;
46931;SDS011;32670;51.464;11.964;2023-09-19T11:31:54;3.33;;;2.80;;
46931;SDS011;32670;51.464;11.964;2023-09-19T11:37:02;3.80;;;3.10;;
46931;SDS011;32670;51.464;11.964;2023-09-19T11:42:45;4.40;;;3.30;;
46931;SDS011;32670;51.464;11.964;2023-09-19T11:48:22;5.93;;;3.83;;
46931;SDS011;32670;51.464;11.964;2023-09-19T11:50:50;3.67;;;3.17;;
46931;SDS011;32670;51.464;11.964;2023-09-19T11:53:17;3.93;;;3.50;;
46931;SDS011;32670;51.464;11.964;2023-09-19T11:55:44;6.87;;;4.30;;
46931;SDS011;32670;51.464;11.964;2023-09-19T11:58:10;5.77;;;4.50;;
46931;SDS011;32670;51.464;11.964;2023-09-19T12:00:39;5.37;;;4.60;;
46931;SDS011;32670;51.464;11.964;2023-09-19T12:03:09;5.60;;;4.70;;
46931;SDS011;32670;51.464;11.964;2023-09-19T12:05:36;7.00;;;5.23;;
46931;SDS011;32670;51.464;11.964;2023-09-19T12:08:02;5.30;;;4.80;;
46931;SDS011;32670;51.464;11.964;2023-09-19T12:10:45;8.17;;;5.47;;
46931;SDS011;32670;51.464;11.964;2023-09-19T12:13:15;5.10;;;4.40;;
46931;SDS011;32670;51.464;11.964;2023-09-19T12:15:42;6.23;;;4.73;;
46931;SDS011;32670;51.464;11.964;2023-09-19T12:18:10;5.13;;;4.63;;
46931;SDS011;32670;51.464;11.964;2023-09-19T12:20:50;7.30;;;5.07;;
46931;SDS011;32670;51.464;11.964;2023-09-19T12:23:17;6.03;;;4.63;;
46931;SDS011;32670;51.464;11.964;2023-09-19T12:25:43;5.70;;;5.10;;
46931;SDS011;32670;51.464;11.964;2023-09-19T12:28:17;6.20;;;5.40;;
46931;SDS011;32670;51.464;11.964;2023-09-19T12:30:43;7.63;;;6.00;;
46931;SDS011;32670;51.464;11.964;2023-09-19T12:33:15;7.13;;;5.87;;
46931;SDS011;32670;51.464;11.964;2023-09-19T12:35:44;6.90;;;6.20;;
46931;SDS011;32670;51.464;11.964;2023-09-19T12:38:10;7.20;;;6.03;;
46931;SDS011;32670;51.464;11.964;2023-09-19T12:40:37;6.70;;;6.00;;
46931;SDS011;32670;51.464;11.964;2023-09-19T12:43:07;8.37;;;5.90;;
46931;SDS011;32670;51.464;11.964;2023-09-19T12:45:34;6.80;;;5.40;;
46931;SDS011;32670;51.464;11.964;2023-09-19T12:51:00;5.57;;;5.03;;
46931;SDS011;32670;51.464;11.964;2023-09-19T12:53:32;6.70;;;5.30;;
46931;SDS011;32670;51.464;11.964;2023-09-19T12:56:05;5.47;;;4.80;;
46931;SDS011;32670;51.464;11.964;2023-09-19T12:58:33;5.90;;;5.23;;
46931;SDS011;32670;51.464;11.964;2023-09-19T13:01:00;8.40;;;5.27;;
46931;SDS011;32670;51.464;11.964;2023-09-19T13:03:30;5.90;;;5.30;;
46931;SDS011;32670;51.464;11.964;2023-09-19T13:06:01;7.80;;;5.40;;
46931;SDS011;32670;51.464;11.964;2023-09-19T13:08:34;5.90;;;5.13;;
46931;SDS011;32670;51.464;11.964;2023-09-19T13:11:04;6.33;;;5.47;;
46931;SDS011;32670;51.464;11.964;2023-09-19T13:13:46;5.53;;;4.47;;
46931;SDS011;32670;51.464;11.964;2023-09-19T13:16:20;5.77;;;4.77;;
46931;SDS011;32670;51.464;11.964;2023-09-19T13:21:26;5.60;;;4.67;;
46931;SDS011;32670;51.464;11.964;2023-09-19T13:24:17;5.00;;;4.50;;
46931;SDS011;32670;51.464;11.964;2023-09-19T13:26:47;5.23;;;4.73;;
46931;SDS011;32670;51.464;11.964;2023-09-19T13:29:13;5.63;;;5.00;;
46931;SDS011;32670;51.464;11.964;2023-09-19T13:31:42;5.27;;;4.77;;
46931;SDS011;32670;51.464;11.964;2023-09-19T13:34:14;5.40;;;4.57;;
46931;SDS011;32670;51.464;11.964;2023-09-19T13:36:41;5.30;;;4.00;;
46931;SDS011;32670;51.464;11.964;2023-09-19T13:39:07;5.03;;;4.53;;
46931;SDS011;32670;51.464;11.964;2023-09-19T13:41:34;4.97;;;4.20;;
46931;SDS011;32670;51.464;11.964;2023-09-19T13:44:01;5.67;;;4.43;;
46931;SDS011;32670;51.464;11.964;2023-09-19T13:46:27;5.47;;;4.53;;
46931;SDS011;32670;51.464;11.964;2023-09-19T13:48:53;5.80;;;3.90;;
46931;SDS011;32670;51.464;11.964;2023-09-19T13:51:20;5.57;;;4.40;;
46931;SDS011;32670;51.464;11.964;2023-09-19T13:53:48;5.40;;;4.90;;
46931;SDS011;32670;51.464;11.964;2023-09-19T13:56:13;6.33;;;5.20;;
46931;SDS011;32670;51.464;11.964;2023-09-19T13:58:39;6.17;;;5.23;;
46931;SDS011;32670;51.464;11.964;2023-09-19T14:01:06;6.67;;;5.27;;
46931;SDS011;32670;51.464;11.964;2023-09-19T14:03:37;6.67;;;5.70;;
46931;SDS011;32670;51.464;11.964;2023-09-19T14:06:03;6.53;;;5.43;;
46931;SDS011;32670;51.464;11.964;2023-09-19T14:08:29;4.60;;;3.47;;
46931;SDS011;32670;51.464;11.964;2023-09-19T14:10:54;7.33;;;4.77;;
46931;SDS011;32670;51.464;11.964;2023-09-19T14:13:20;5.83;;;4.97;;
46931;SDS011;32670;51.464;11.964;2023-09-19T14:15:45;6.83;;;5.70;;
46931;SDS011;32670;51.464;11.964;2023-09-19T14:18:11;5.47;;;4.97;;
46931;SDS011;32670;51.464;11.964;2023-09-19T14:20:38;6.77;;;5.10;;
46931;SDS011;32670;51.464;11.964;2023-09-19T14:23:05;6.23;;;5.00;;
46931;SDS011;32670;51.464;11.964;2023-09-19T14:25:33;5.10;;;4.60;;
46931;SDS011;32670;51.464;11.964;2023-09-19T14:28:00;7.07;;;4.47;;
46931;SDS011;32670;51.464;11.964;2023-09-19T14:30:25;5.03;;;4.53;;
46931;SDS011;32670;51.464;11.964;2023-09-19T14:32:52;4.07;;;3.67;;
46931;SDS011;32670;51.464;11.964;2023-09-19T14:35:18;6.47;;;5.33;;
46931;SDS011;32670;51.464;11.964;2023-09-19T14:37:44;6.57;;;4.93;;
46931;SDS011;32670;51.464;11.964;2023-09-19T14:40:10;5.67;;;5.07;;
46931;SDS011;32670;51.464;11.964;2023-09-19T14:42:38;7.50;;;5.27;;
46931;SDS011;32670;51.464;11.964;2023-09-19T14:45:04;7.17;;;5.10;;
46931;SDS011;32670;51.464;11.964;2023-09-19T14:47:30;5.33;;;4.57;;
46931;SDS011;32670;51.464;11.964;2023-09-19T14:50:00;6.93;;;4.07;;
46931;SDS011;32670;51.464;11.964;2023-09-19T14:52:27;6.00;;;4.87;;
46931;SDS011;32670;51.464;11.964;2023-09-19T14:54:53;6.03;;;4.53;;
46931;SDS011;32670;51.464;11.964;2023-09-19T14:57:19;5.87;;;4.27;;
46931;SDS011;32670;51.464;11.964;2023-09-19T14:59:45;5.47;;;4.40;;
46931;SDS011;32670;51.464;11.964;2023-09-19T15:02:10;4.40;;;4.00;;
46931;SDS011;32670;51.464;11.964;2023-09-19T15:04:36;5.33;;;4.47;;
46931;SDS011;32670;51.464;11.964;2023-09-19T15:07:05;7.53;;;4.40;;
46931;SDS011;32670;51.464;11.964;2023-09-19T15:09:31;4.90;;;4.17;;
46931;SDS011;32670;51.464;11.964;2023-09-19T15:11:58;4.67;;;3.70;;
46931;SDS011;32670;51.464;11.964;2023-09-19T15:14:24;3.43;;;3.13;;
46931;SDS011;32670;51.464;11.964;2023-09-19T15:16:50;3.07;;;2.87;;
46931;SDS011;32670;51.464;11.964;2023-09-19T15:19:15;5.33;;;3.70;;